createdAt,value
2022-08-17T00:00:01.478Z,25.5
2022-08-17T00:01:01.652Z,25.5
2022-08-17T00:02:05.063Z,25.5
2022-08-17T00:03:02.734Z,25.5
2022-08-17T00:04:02.103Z,25.5
2022-08-17T00:05:01.963Z,25.4
2022-08-17T00:06:01.886Z,25.4
2022-08-17T00:07:01.867Z,25.3
2022-08-17T00:08:01.689Z,25.2
2022-08-17T00:09:01.668Z,25.2
2022-08-17T00:10:01.430Z,25.2
2022-08-17T00:11:02.409Z,25
2022-08-17T00:12:34.798Z,24.9
2022-08-17T00:13:01.333Z,25
2022-08-17T00:14:02.297Z,25.1
2022-08-17T00:15:02.173Z,24.9
2022-08-17T00:16:02.340Z,25.2
2022-08-17T00:17:02.312Z,25.2
2022-08-17T00:18:02.147Z,25.2
2022-08-17T00:19:07.158Z,25.1
2022-08-17T00:20:01.647Z,25.1
2022-08-17T00:21:01.582Z,25.2
2022-08-17T00:22:33.482Z,25.2
2022-08-17T00:23:01.444Z,25.2
2022-08-17T00:24:02.408Z,25.2
2022-08-17T00:25:02.242Z,25.2
2022-08-17T00:26:02.232Z,25.2
2022-08-17T00:27:02.046Z,25.2
2022-08-17T00:28:02.000Z,25.2
2022-08-17T00:29:01.843Z,25.2
2022-08-17T00:30:01.799Z,25.2
2022-08-17T00:31:01.944Z,25.2
2022-08-17T00:32:01.926Z,25.2
2022-08-17T00:33:10.305Z,25.2
2022-08-17T00:34:01.666Z,25.2
2022-08-17T00:35:01.601Z,25.2
2022-08-17T00:36:01.460Z,25.2
2022-08-17T00:37:02.423Z,25.2
2022-08-17T00:38:02.264Z,25.2
2022-08-17T00:39:02.282Z,25.2
2022-08-17T00:40:02.147Z,25.2
2022-08-17T00:41:02.301Z,25.2
2022-08-17T00:42:02.169Z,25.2
2022-08-17T00:43:02.160Z,25.2
2022-08-17T00:44:01.971Z,25.2
2022-08-17T00:45:01.909Z,25.2
2022-08-17T00:46:02.056Z,25.2
2022-08-17T00:47:02.002Z,25.2
2022-08-17T00:48:01.832Z,25.2
2022-08-17T00:49:01.739Z,25.1
2022-08-17T00:50:01.711Z,25.1
2022-08-17T00:51:01.530Z,25.1
2022-08-17T00:52:01.508Z,25.1
2022-08-17T00:53:02.062Z,25.1
2022-08-17T00:54:01.980Z,25.1
2022-08-17T00:55:01.891Z,25.1
2022-08-17T00:56:01.758Z,25.1
2022-08-17T00:57:01.701Z,25.1
2022-08-17T00:58:01.662Z,25.1
2022-08-17T00:59:01.498Z,25.1
2022-08-17T01:00:02.861Z,25.1
2022-08-17T01:01:01.516Z,25.1
2022-08-17T01:02:01.733Z,25.1
2022-08-17T01:03:01.531Z,25.1
2022-08-17T01:04:01.512Z,25.1
2022-08-17T01:05:02.444Z,25.1
2022-08-17T01:06:02.276Z,25
2022-08-17T01:07:01.918Z,25
2022-08-17T01:08:01.742Z,24.9
2022-08-17T01:09:01.674Z,24.6
2022-08-17T01:10:01.591Z,24.7
2022-08-17T01:11:01.900Z,24.9
2022-08-17T01:12:02.135Z,24.9
2022-08-17T01:13:02.103Z,24.9
2022-08-17T01:14:02.047Z,24.9
2022-08-17T01:15:01.978Z,24.9
2022-08-17T01:16:02.207Z,24.9
2022-08-17T01:17:02.190Z,25
2022-08-17T01:18:02.016Z,24.9
2022-08-17T01:19:01.942Z,24.9
2022-08-17T01:20:01.933Z,24.9
2022-08-17T01:21:01.788Z,24.9
2022-08-17T01:22:01.710Z,24.9
2022-08-17T01:23:01.706Z,24.9
2022-08-17T01:24:01.533Z,25
2022-08-17T01:25:01.487Z,24.9
2022-08-17T01:26:02.425Z,24.9
2022-08-17T01:27:02.262Z,24.8
2022-08-17T01:28:02.251Z,24.8
2022-08-17T01:29:02.241Z,24.6
2022-08-17T01:30:02.061Z,24.7
2022-08-17T01:31:01.942Z,24.5
2022-08-17T01:32:01.872Z,24.5
2022-08-17T01:33:01.681Z,24.4
2022-08-17T01:34:01.849Z,24.5
2022-08-17T01:35:01.805Z,24.5
2022-08-17T01:36:01.734Z,24.3
2022-08-17T01:37:01.695Z,24.5
2022-08-17T01:38:01.594Z,24.6
2022-08-17T01:39:01.440Z,24.7
2022-08-17T01:40:02.414Z,24.7
2022-08-17T01:41:01.556Z,24.5
2022-08-17T01:42:01.596Z,24.6
2022-08-17T01:43:01.463Z,24.6
2022-08-17T01:44:01.482Z,24.7
2022-08-17T01:45:02.401Z,24.8
2022-08-17T01:46:02.415Z,24.8
2022-08-17T01:47:01.797Z,24.8
2022-08-17T01:48:02.366Z,24.8
2022-08-17T01:49:02.254Z,24.8
2022-08-17T01:50:02.181Z,24.8
2022-08-17T01:51:02.002Z,24.8
2022-08-17T01:52:02.173Z,24.7
2022-08-17T01:53:02.139Z,24.3
2022-08-17T01:54:01.990Z,24.5
2022-08-17T01:55:02.011Z,24.4
2022-08-17T01:56:01.887Z,24.4
2022-08-17T01:57:01.710Z,24.3
2022-08-17T01:58:02.113Z,24.2
2022-08-17T01:59:02.107Z,24.1
2022-08-17T02:00:02.020Z,24.3
2022-08-17T02:01:02.282Z,24.2
2022-08-17T02:02:01.489Z,24.2
2022-08-17T02:03:02.441Z,24.2
2022-08-17T02:04:02.293Z,24.1
2022-08-17T02:05:02.240Z,24.2
2022-08-17T02:06:02.167Z,24.3
2022-08-17T02:07:01.600Z,24.4
2022-08-17T02:08:02.066Z,24.5
2022-08-17T02:09:03.777Z,24.4
2022-08-17T02:10:01.871Z,24.5
2022-08-17T02:11:02.150Z,24.5
2022-08-17T02:12:04.850Z,24.6
2022-08-17T02:13:01.569Z,24.3
2022-08-17T02:14:02.725Z,24.5
2022-08-17T02:15:01.803Z,24.5
2022-08-17T02:16:01.955Z,24.6
2022-08-17T02:17:01.918Z,24.6
2022-08-17T02:18:01.730Z,24.6
2022-08-17T02:19:01.692Z,24.6
2022-08-17T02:20:01.497Z,24.3
2022-08-17T02:21:01.473Z,24.5
2022-08-17T02:22:02.428Z,24.5
2022-08-17T02:23:02.265Z,24.5
2022-08-17T02:24:02.013Z,24.5
2022-08-17T02:25:02.567Z,24.5
2022-08-17T02:26:01.577Z,24.6
2022-08-17T02:27:01.560Z,24.6
2022-08-17T02:28:01.501Z,24.6
2022-08-17T02:29:02.400Z,24.6
2022-08-17T02:30:02.225Z,24.6
2022-08-17T02:31:03.126Z,24.6
2022-08-17T02:32:02.318Z,24.6
2022-08-17T02:33:04.108Z,24.6
2022-08-17T02:34:04.318Z,24.5
2022-08-17T02:35:02.198Z,24.5
2022-08-17T02:36:02.034Z,24.6
2022-08-17T02:37:01.941Z,24.6
2022-08-17T02:38:01.945Z,24.5
2022-08-17T02:39:01.877Z,24.5
2022-08-17T02:40:01.777Z,24.5
2022-08-17T02:41:01.928Z,24.5
2022-08-17T02:42:01.783Z,24.5
2022-08-17T02:43:01.689Z,24.5
2022-08-17T02:44:02.041Z,24.5
2022-08-17T02:45:02.009Z,24.5
2022-08-17T02:46:01.985Z,24.5
2022-08-17T02:47:01.923Z,24.5
2022-08-17T02:48:01.847Z,24.5
2022-08-17T02:49:01.691Z,24.5
2022-08-17T02:50:01.694Z,24.5
2022-08-17T02:51:01.552Z,24.5
2022-08-17T02:52:01.355Z,24.5
2022-08-17T02:53:02.905Z,24.5
2022-08-17T02:54:35.802Z,24.5
2022-08-17T02:55:02.100Z,24.5
2022-08-17T02:56:02.121Z,24.5
2022-08-17T02:57:01.958Z,24.4
2022-08-17T02:58:01.898Z,24.4
2022-08-17T02:59:01.865Z,24.4
2022-08-17T03:00:01.915Z,24.4
2022-08-17T03:01:02.068Z,24.4
2022-08-17T03:02:02.044Z,24.4
2022-08-17T03:03:02.132Z,24.5
2022-08-17T03:04:02.068Z,24.5
2022-08-17T03:05:02.018Z,24.5
2022-08-17T03:06:01.875Z,24.4
2022-08-17T03:07:01.810Z,24.4
2022-08-17T03:08:01.805Z,24.4
2022-08-17T03:09:01.647Z,24.4
2022-08-17T03:10:01.613Z,24.4
2022-08-17T03:11:01.427Z,24.4
2022-08-17T03:12:02.393Z,24.4
2022-08-17T03:13:02.200Z,24.4
2022-08-17T03:14:02.301Z,24.4
2022-08-17T03:15:02.132Z,24.4
2022-08-17T03:16:01.362Z,24.4
2022-08-17T03:17:02.328Z,24.4
2022-08-17T03:18:01.946Z,24.4
2022-08-17T03:19:01.925Z,24.4
2022-08-17T03:20:01.747Z,24.4
2022-08-17T03:21:01.694Z,24.4
2022-08-17T03:22:01.608Z,24.4
2022-08-17T03:23:02.796Z,24.4
2022-08-17T03:24:02.050Z,24.4
2022-08-17T03:25:01.740Z,24.3
2022-08-17T03:26:01.979Z,24.1
2022-08-17T03:27:02.061Z,23.7
2022-08-17T03:28:02.014Z,23.4
2022-08-17T03:29:01.963Z,23
2022-08-17T03:30:01.799Z,23
2022-08-17T03:31:01.822Z,23.4
2022-08-17T03:32:01.753Z,23.7
2022-08-17T03:33:01.604Z,23.9
2022-08-17T03:34:01.569Z,24
2022-08-17T03:35:01.333Z,23.9
2022-08-17T03:36:02.336Z,23.9
2022-08-17T03:37:02.176Z,23.9
2022-08-17T03:38:02.161Z,24
2022-08-17T03:39:01.978Z,24
2022-08-17T03:40:01.931Z,24.1
2022-08-17T03:41:02.198Z,24.1
2022-08-17T03:42:02.022Z,24.1
2022-08-17T03:43:01.955Z,24.1
2022-08-17T03:44:01.918Z,24.1
2022-08-17T03:45:01.826Z,24.1
2022-08-17T03:46:01.746Z,24.1
2022-08-17T03:47:01.727Z,24.1
2022-08-17T03:48:01.578Z,24.1
2022-08-17T03:49:01.549Z,24.1
2022-08-17T03:50:01.390Z,24.2
2022-08-17T03:51:02.393Z,24.2
2022-08-17T03:52:02.221Z,24.2
2022-08-17T03:53:02.198Z,24.2
2022-08-17T03:54:02.028Z,24.2
2022-08-17T03:55:02.134Z,24.2
2022-08-17T03:56:02.094Z,24.2
2022-08-17T03:57:01.958Z,24.2
2022-08-17T03:58:01.903Z,24.2
2022-08-17T03:59:01.848Z,24.2
2022-08-17T04:00:01.907Z,24.2
2022-08-17T04:01:02.163Z,24.2
2022-08-17T04:02:02.340Z,24.2
2022-08-17T04:03:02.198Z,24.2
2022-08-17T04:04:02.181Z,24.2
2022-08-17T04:05:01.964Z,24.2
2022-08-17T04:06:01.942Z,24.2
2022-08-17T04:07:01.913Z,24.2
2022-08-17T04:08:01.768Z,24.1
2022-08-17T04:09:01.788Z,24
2022-08-17T04:10:01.766Z,24
2022-08-17T04:11:01.697Z,24
2022-08-17T04:12:02.463Z,24
2022-08-17T04:13:02.039Z,23.9
2022-08-17T04:14:01.951Z,23.8
2022-08-17T04:15:01.929Z,23.9
2022-08-17T04:16:02.165Z,23.9
2022-08-17T04:17:02.123Z,23.9
2022-08-17T04:18:02.079Z,24
2022-08-17T04:19:01.988Z,24
2022-08-17T04:20:01.916Z,24.1
2022-08-17T04:21:01.864Z,24
2022-08-17T04:22:01.697Z,23.9
2022-08-17T04:23:01.598Z,24
2022-08-17T04:24:01.423Z,24.1
2022-08-17T04:25:02.330Z,24.2
2022-08-17T04:26:02.186Z,24.1
2022-08-17T04:27:02.104Z,24.1
2022-08-17T04:28:01.929Z,24.2
2022-08-17T04:29:01.761Z,24.2
2022-08-17T04:30:01.667Z,24.2
2022-08-17T04:31:01.788Z,24.3
2022-08-17T04:32:01.670Z,24.2
2022-08-17T04:33:05.690Z,24.2
2022-08-17T04:34:01.851Z,24
2022-08-17T04:35:01.711Z,23.8
2022-08-17T04:36:01.622Z,23.6
2022-08-17T04:37:01.481Z,23.5
2022-08-17T04:38:02.538Z,23.6
2022-08-17T04:39:01.548Z,23.4
2022-08-17T04:40:04.055Z,23.3
2022-08-17T04:41:02.393Z,23.5
2022-08-17T04:42:02.192Z,23.6
2022-08-17T04:43:02.105Z,23.4
2022-08-17T04:44:01.982Z,23.3
2022-08-17T04:45:01.810Z,23.4
2022-08-17T04:46:02.345Z,23.4
2022-08-17T04:47:02.282Z,23.6
2022-08-17T04:48:02.119Z,23.8
2022-08-17T04:49:02.045Z,23.7
2022-08-17T04:50:01.830Z,24
2022-08-17T04:51:01.660Z,24.1
2022-08-17T04:52:04.508Z,24.1
2022-08-17T04:53:01.815Z,24.1
2022-08-17T04:54:01.717Z,24.2
2022-08-17T04:55:01.637Z,24.2
2022-08-17T04:56:01.461Z,24.3
2022-08-17T04:57:02.324Z,24.3
2022-08-17T04:58:02.238Z,24.3
2022-08-17T04:59:02.164Z,24.2
2022-08-17T05:00:01.976Z,24.3
2022-08-17T05:01:02.339Z,24.3
2022-08-17T05:02:01.400Z,24.2
2022-08-17T05:03:02.261Z,24.2
2022-08-17T05:04:02.401Z,24
2022-08-17T05:05:01.894Z,23.9
2022-08-17T05:06:01.761Z,23.9
2022-08-17T05:07:01.589Z,23.7
2022-08-17T05:08:01.475Z,23.8
2022-08-17T05:09:02.350Z,23.8
2022-08-17T05:10:02.220Z,23.4
2022-08-17T05:11:02.151Z,23.4
2022-08-17T05:12:01.997Z,23.5
2022-08-17T05:13:01.953Z,23.4
2022-08-17T05:14:01.844Z,23.4
2022-08-17T05:15:01.732Z,23.4
2022-08-17T05:16:01.756Z,23.3
2022-08-17T05:17:01.688Z,23.4
2022-08-17T05:18:01.978Z,23.3
2022-08-17T05:19:01.841Z,23.4
2022-08-17T05:20:01.757Z,23.6
2022-08-17T05:21:01.619Z,23.5
2022-08-17T05:22:01.517Z,23.9
2022-08-17T05:23:02.361Z,23.6
2022-08-17T05:24:02.208Z,23.6
2022-08-17T05:25:02.678Z,23.8
2022-08-17T05:26:01.692Z,24
2022-08-17T05:27:06.417Z,24.1
2022-08-17T05:28:02.074Z,23.9
2022-08-17T05:29:02.909Z,24
2022-08-17T05:30:01.935Z,23.9
2022-08-17T05:31:02.063Z,24
2022-08-17T05:32:01.988Z,24
2022-08-17T05:33:02.137Z,24.1
2022-08-17T05:34:01.971Z,24.2
2022-08-17T05:35:01.850Z,24.1
2022-08-17T05:36:01.713Z,23.9
2022-08-17T05:37:01.588Z,23.9
2022-08-17T05:38:01.415Z,23.9
2022-08-17T05:39:02.378Z,24
2022-08-17T05:40:02.285Z,24.1
2022-08-17T05:41:01.594Z,24.2
2022-08-17T05:42:01.398Z,24.3
2022-08-17T05:43:02.008Z,24.3
2022-08-17T05:44:05.431Z,24.1
2022-08-17T05:45:01.521Z,24.1
2022-08-17T05:46:01.423Z,24.1
2022-08-17T05:47:01.625Z,24
2022-08-17T05:48:01.614Z,24.2
2022-08-17T05:49:01.442Z,24.4
2022-08-17T05:50:02.460Z,24.3
2022-08-17T05:51:01.762Z,24.2
2022-08-17T05:52:02.444Z,24.2
2022-08-17T05:53:02.323Z,24.3
2022-08-17T05:54:02.383Z,24.4
2022-08-17T05:55:02.200Z,24.3
2022-08-17T05:56:02.213Z,24.5
2022-08-17T05:57:02.031Z,24.4
2022-08-17T05:58:02.043Z,24.5
2022-08-17T05:59:01.899Z,24.6
2022-08-17T06:00:01.841Z,24.6
2022-08-17T06:01:01.887Z,24.7
2022-08-17T06:02:02.336Z,24.7
2022-08-17T06:03:02.167Z,24.8
2022-08-17T06:04:02.145Z,24.9
2022-08-17T06:05:01.995Z,24.8
2022-08-17T06:06:01.923Z,24.8
2022-08-17T06:07:01.905Z,24.8
2022-08-17T06:08:01.740Z,24.9
2022-08-17T06:09:01.682Z,24.8
2022-08-17T06:10:01.601Z,24.9
2022-08-17T06:11:01.422Z,25
2022-08-17T06:12:02.317Z,25.1
2022-08-17T06:13:02.197Z,24.9
2022-08-17T06:14:02.031Z,24.7
2022-08-17T06:15:01.950Z,24.8
2022-08-17T06:16:01.956Z,25
2022-08-17T06:17:02.321Z,24.9
2022-08-17T06:18:02.144Z,25
2022-08-17T06:19:02.142Z,25.1
2022-08-17T06:20:01.950Z,25.1
2022-08-17T06:21:01.905Z,25
2022-08-17T06:22:01.873Z,25.1
2022-08-17T06:23:01.713Z,25.1
2022-08-17T06:24:01.707Z,25.2
2022-08-17T06:25:01.470Z,25.2
2022-08-17T06:26:01.472Z,25.2
2022-08-17T06:27:02.395Z,25.3
2022-08-17T06:28:02.222Z,25.3
2022-08-17T06:29:02.221Z,25.4
2022-08-17T06:30:02.067Z,25.3
2022-08-17T06:31:02.033Z,25.2
2022-08-17T06:32:02.282Z,25.4
2022-08-17T06:33:02.164Z,25.5
2022-08-17T06:34:02.126Z,25.6
2022-08-17T06:35:01.955Z,25.5
2022-08-17T06:36:01.915Z,25.6
2022-08-17T06:37:02.089Z,25.6
2022-08-17T06:38:02.115Z,25.6
2022-08-17T06:39:01.970Z,25.6
2022-08-17T06:40:01.918Z,25.6
2022-08-17T06:41:02.126Z,25.7
2022-08-17T06:42:01.986Z,25.6
2022-08-17T06:43:05.430Z,25.7
2022-08-17T06:44:01.384Z,25.7
2022-08-17T06:45:02.353Z,25.7
2022-08-17T06:46:02.198Z,25.8
2022-08-17T06:47:01.562Z,25.7
2022-08-17T06:48:01.528Z,25.8
2022-08-17T06:49:01.357Z,25.9
2022-08-17T06:50:02.317Z,25.9
2022-08-17T06:51:02.157Z,25.9
2022-08-17T06:52:02.136Z,26
2022-08-17T06:53:01.957Z,26
2022-08-17T06:54:01.879Z,26
2022-08-17T06:55:01.929Z,26.1
2022-08-17T06:56:01.763Z,26
2022-08-17T06:57:01.695Z,26.1
2022-08-17T06:58:01.647Z,26.1
2022-08-17T06:59:01.407Z,26.2
2022-08-17T07:00:02.385Z,26.2
2022-08-17T07:01:01.712Z,26.2
2022-08-17T07:02:02.076Z,26.3
2022-08-17T07:03:02.035Z,26.3
2022-08-17T07:04:04.968Z,26.3
2022-08-17T07:05:02.029Z,26
2022-08-17T07:06:01.970Z,26.2
2022-08-17T07:07:01.810Z,26.3
2022-08-17T07:08:01.734Z,26.3
2022-08-17T07:09:01.691Z,26.4
2022-08-17T07:10:01.479Z,26.4
2022-08-17T07:11:01.477Z,26.5
2022-08-17T07:12:02.402Z,26.5
2022-08-17T07:13:02.238Z,26.3
2022-08-17T07:14:02.192Z,26.5
2022-08-17T07:15:02.000Z,26.6
2022-08-17T07:16:01.938Z,26.6
2022-08-17T07:17:02.134Z,26.6
2022-08-17T07:18:02.265Z,26.7
2022-08-17T07:19:02.027Z,26.8
2022-08-17T07:20:02.009Z,26.8
2022-08-17T07:21:01.847Z,26.7
2022-08-17T07:22:01.770Z,26.6
2022-08-17T07:23:01.758Z,26.6
2022-08-17T07:24:01.645Z,26.8
2022-08-17T07:25:01.551Z,26.9
2022-08-17T07:26:01.415Z,26.9
2022-08-17T07:27:02.420Z,26.9
2022-08-17T07:28:02.235Z,26.7
2022-08-17T07:29:01.997Z,26.8
2022-08-17T07:30:03.732Z,27
2022-08-17T07:31:01.757Z,27.1
2022-08-17T07:32:02.008Z,27.3
2022-08-17T07:33:01.985Z,27.1
2022-08-17T07:34:01.837Z,27
2022-08-17T07:35:01.771Z,27
2022-08-17T07:36:01.758Z,27.2
2022-08-17T07:37:01.609Z,27.1
2022-08-17T07:38:01.554Z,27.1
2022-08-17T07:39:01.380Z,27.3
2022-08-17T07:40:15.761Z,27.4
2022-08-17T07:41:01.966Z,27.4
2022-08-17T07:42:01.788Z,27.5
2022-08-17T07:43:01.595Z,27.7
2022-08-17T07:44:01.596Z,27.7
2022-08-17T07:45:01.495Z,27.6
2022-08-17T07:46:01.445Z,27.6
2022-08-17T07:47:01.880Z,27.8
2022-08-17T07:48:01.832Z,27.7
2022-08-17T07:49:01.684Z,27.8
2022-08-17T07:50:01.575Z,27.9
2022-08-17T07:51:01.416Z,28
2022-08-17T07:52:24.418Z,28.1
2022-08-17T07:53:02.173Z,27.9
2022-08-17T07:54:13.833Z,27.9
2022-08-17T07:55:01.925Z,27.9
2022-08-17T07:56:01.946Z,28
2022-08-17T07:57:01.921Z,27.9
2022-08-17T07:58:01.786Z,28.2
2022-08-17T07:59:01.730Z,28.2
2022-08-17T08:00:01.830Z,28.2
2022-08-17T08:01:01.970Z,28.3
2022-08-17T08:02:01.700Z,28.1
2022-08-17T08:03:01.622Z,28.2
2022-08-17T08:04:01.514Z,28.2
2022-08-17T08:05:02.442Z,28
2022-08-17T08:06:01.422Z,28.2
2022-08-17T08:07:02.383Z,28.5
2022-08-17T08:08:02.231Z,28.5
2022-08-17T08:09:02.211Z,28.5
2022-08-17T08:10:02.052Z,28.3
2022-08-17T08:11:02.017Z,28.4
2022-08-17T08:12:01.846Z,28.7
2022-08-17T08:13:01.784Z,28.6
2022-08-17T08:14:01.837Z,28.6
2022-08-17T08:15:01.712Z,28.8
2022-08-17T08:16:01.600Z,28.8
2022-08-17T08:17:02.049Z,28.9
2022-08-17T08:18:01.982Z,28.6
2022-08-17T08:19:01.823Z,28.5
2022-08-17T08:20:35.123Z,28.7
2022-08-17T08:21:01.788Z,28.8
2022-08-17T08:22:01.724Z,28.8
2022-08-17T08:23:01.710Z,28.8
2022-08-17T08:24:01.702Z,29
2022-08-17T08:25:01.495Z,28.8
2022-08-17T08:26:01.487Z,29
2022-08-17T08:27:02.447Z,29.2
2022-08-17T08:28:02.291Z,29.3
2022-08-17T09:03:01.488Z,29.7
2022-08-17T09:04:18.121Z,29.9
2022-08-17T09:05:14.909Z,29.7
2022-08-17T09:06:01.802Z,30.2
2022-08-17T09:07:01.732Z,30
2022-08-17T09:08:01.533Z,30.2
2022-08-17T09:09:01.476Z,30.5
2022-08-17T09:10:02.418Z,30.6
2022-08-17T09:11:02.229Z,30.4
2022-08-17T09:12:03.732Z,30.6
2022-08-17T09:13:09.468Z,31
2022-08-17T09:14:02.065Z,31
2022-08-17T09:15:02.370Z,31.4
2022-08-17T09:16:02.291Z,31
2022-08-17T09:17:01.853Z,31.2
2022-08-17T09:18:28.714Z,31.3
2022-08-17T09:19:04.572Z,31.3
2022-08-17T09:20:01.448Z,31.5
2022-08-17T09:21:02.403Z,31.7
2022-08-17T09:22:02.247Z,31.9
2022-08-17T09:23:02.268Z,31.7
2022-08-17T09:24:02.091Z,31.7
2022-08-17T09:25:02.025Z,31.9
2022-08-17T09:26:01.856Z,32
2022-08-17T09:27:01.795Z,32.1
2022-08-17T09:28:01.726Z,32.2
2022-08-17T09:29:01.581Z,32
2022-08-17T09:30:01.478Z,31.7
2022-08-17T09:31:01.413Z,31.6
2022-08-17T09:32:02.345Z,31.9
2022-08-17T09:33:02.157Z,31.7
2022-08-17T09:34:02.128Z,31.8
2022-08-17T09:35:01.949Z,32
2022-08-17T09:36:01.556Z,32.1
2022-08-17T09:37:01.479Z,31.9
2022-08-17T09:38:02.411Z,32
2022-08-17T09:39:01.886Z,32.1
2022-08-17T09:40:01.909Z,32.1
2022-08-17T09:41:02.428Z,31.9
2022-08-17T09:42:02.386Z,31.9
2022-08-17T09:43:02.236Z,32.1
2022-08-17T09:44:02.125Z,32.4
2022-08-17T09:45:02.050Z,32.1
2022-08-17T09:46:01.858Z,31.4
2022-08-17T09:47:02.065Z,32
2022-08-17T09:48:01.944Z,32.2
2022-08-17T09:49:01.810Z,32.6
2022-08-17T09:50:01.747Z,32.1
2022-08-17T09:51:04.429Z,31.9
2022-08-17T09:52:01.481Z,31.5
2022-08-17T09:53:01.419Z,32
2022-08-17T09:54:21.285Z,32.5
2022-08-17T09:55:01.912Z,32.7
2022-08-17T09:56:01.825Z,32.5
2022-08-17T09:57:26.136Z,32.6
2022-08-17T09:58:01.580Z,32.6
2022-08-17T09:59:01.507Z,32.6
2022-08-17T10:00:02.343Z,32.8
2022-08-17T10:01:02.220Z,32.6
2022-08-17T10:02:02.303Z,33
2022-08-17T10:03:02.164Z,33
2022-08-17T10:04:02.248Z,32.3
2022-08-17T10:05:02.089Z,32.7
2022-08-17T10:06:02.104Z,32.9
2022-08-17T10:07:01.540Z,32.2
2022-08-17T10:08:01.766Z,32.1
2022-08-17T10:09:01.760Z,32.1
2022-08-17T10:10:01.573Z,32.3
2022-08-17T10:11:01.534Z,32
2022-08-17T10:12:01.399Z,32.4
2022-08-17T10:13:01.779Z,32.3
2022-08-17T10:14:01.816Z,32.4
2022-08-17T10:15:07.842Z,32.9
2022-08-17T10:16:01.898Z,33
2022-08-17T10:17:01.794Z,33.2
2022-08-17T10:18:01.698Z,32.6
2022-08-17T10:19:01.657Z,33.2
2022-08-17T10:20:01.454Z,33.5
2022-08-17T10:21:01.473Z,33.4
2022-08-17T10:22:14.462Z,32.5
2022-08-17T10:23:01.660Z,32.1
2022-08-17T10:24:01.636Z,32.1
2022-08-17T10:25:02.180Z,32.2
2022-08-17T10:26:01.452Z,32
2022-08-17T10:27:01.468Z,31.9
2022-08-17T10:28:02.429Z,31.8
2022-08-17T10:29:02.260Z,31.8
2022-08-17T10:30:02.269Z,31.8
2022-08-17T10:31:30.719Z,32.1
2022-08-17T10:32:01.593Z,31.7
2022-08-17T10:33:01.566Z,32.4
2022-08-17T10:34:01.449Z,32.8
2022-08-17T10:35:02.396Z,32.6
2022-08-17T10:36:03.057Z,33.1
2022-08-17T10:37:01.391Z,32.4
2022-08-17T10:38:02.409Z,32.4
2022-08-17T10:39:02.299Z,32.8
2022-08-17T10:40:02.325Z,33.4
2022-08-17T10:41:01.375Z,33.5
2022-08-17T10:42:02.400Z,33.5
2022-08-17T10:43:02.234Z,33.2
2022-08-17T10:44:37.783Z,33.2
2022-08-17T10:45:02.081Z,33.7
2022-08-17T10:46:09.192Z,33.7
2022-08-17T10:47:02.322Z,33.9
2022-08-17T10:48:05.589Z,33.6
2022-08-17T10:49:02.240Z,33.4
2022-08-17T10:50:02.198Z,32.7
2022-08-17T10:51:02.041Z,32.9
2022-08-17T10:52:01.991Z,32.5
2022-08-17T10:53:01.875Z,32.3
2022-08-17T10:54:01.795Z,32.3
2022-08-17T10:55:01.793Z,32.1
2022-08-17T10:56:01.601Z,31.9
2022-08-17T10:57:01.553Z,32.4
2022-08-17T10:58:01.392Z,32.7
2022-08-17T10:59:02.424Z,33
2022-08-17T11:00:02.283Z,33.2
2022-08-17T11:01:01.415Z,33.3
2022-08-17T11:02:01.588Z,33.4
2022-08-17T11:03:01.557Z,33.6
2022-08-17T11:04:01.542Z,33.7
2022-08-17T11:05:01.350Z,33.6
2022-08-17T11:06:02.352Z,33.2
2022-08-17T11:07:02.287Z,33.6
2022-08-17T11:08:02.156Z,33.8
2022-08-17T11:09:02.358Z,34
2022-08-17T11:10:02.211Z,33.8
2022-08-17T11:11:02.303Z,34.1
2022-08-17T11:12:02.154Z,34.3
2022-08-17T11:13:02.122Z,34.2
2022-08-17T11:14:02.398Z,34.4
2022-08-17T11:15:02.224Z,34.6
2022-08-17T11:16:06.217Z,34.9
2022-08-17T11:17:02.415Z,34.1
2022-08-17T11:18:01.479Z,34.9
2022-08-17T11:19:01.481Z,34.6
2022-08-17T11:20:02.425Z,35
2022-08-17T11:21:02.252Z,35.2
2022-08-17T11:22:02.343Z,34.9
2022-08-17T11:23:02.249Z,34.8
2022-08-17T11:24:02.232Z,35.1
2022-08-17T11:25:02.132Z,34.5
2022-08-17T11:26:02.156Z,34.5
2022-08-17T11:27:01.954Z,34.7
2022-08-17T11:28:01.898Z,34.5
2022-08-17T11:29:01.912Z,34
2022-08-17T11:30:02.980Z,33.4
2022-08-17T11:31:01.372Z,33.8
2022-08-17T11:32:01.653Z,34.5
2022-08-17T11:33:01.510Z,34.6
2022-08-17T11:34:01.789Z,34.8
2022-08-17T11:35:01.584Z,34.8
2022-08-17T11:36:01.592Z,34.9
2022-08-17T11:37:01.425Z,34.5
2022-08-17T11:38:02.377Z,34.7
2022-08-17T11:39:02.236Z,34.9
2022-08-17T11:40:02.264Z,34.7
2022-08-17T11:41:02.427Z,34.9
2022-08-17T11:42:02.276Z,34.9
2022-08-17T11:43:02.245Z,35
2022-08-17T11:44:02.812Z,34.7
2022-08-17T11:45:01.788Z,34.5
2022-08-17T11:46:01.565Z,34.2
2022-08-17T11:47:01.540Z,33.9
2022-08-17T11:48:26.357Z,33.3
2022-08-17T11:49:02.094Z,32.9
2022-08-17T11:50:02.053Z,32.6
2022-08-17T11:51:01.898Z,32.7
2022-08-17T11:52:01.811Z,32.4
2022-08-17T11:53:01.846Z,32.2
2022-08-17T11:54:21.867Z,32.3
2022-08-17T11:55:17.907Z,32.7
2022-08-17T11:56:02.136Z,33.3
2022-08-17T11:57:02.114Z,33.9
2022-08-17T11:58:02.030Z,34
2022-08-17T11:59:01.931Z,34.1
2022-08-17T12:00:01.959Z,33.9
2022-08-17T12:01:02.068Z,34.3
2022-08-17T12:02:02.013Z,34.5
2022-08-17T12:03:02.026Z,35
2022-08-17T12:04:01.936Z,35
2022-08-17T12:05:02.127Z,34.9
2022-08-17T12:06:02.056Z,35.3
2022-08-17T12:07:01.846Z,34.7
2022-08-17T12:08:01.762Z,34.6
2022-08-17T12:09:01.807Z,34.5
2022-08-17T12:10:01.664Z,35
2022-08-17T12:11:01.629Z,34.6
2022-08-17T12:12:12.257Z,33.8
2022-08-17T12:13:01.404Z,33.9
2022-08-17T12:14:02.427Z,34.3
2022-08-17T12:15:11.278Z,34.3
2022-08-17T12:16:01.476Z,34.1
2022-08-17T12:17:01.676Z,33.9
2022-08-17T12:18:01.530Z,34.6
2022-08-17T12:19:01.519Z,35.1
2022-08-17T12:20:01.377Z,35.2
2022-08-17T12:21:01.446Z,35
2022-08-17T12:22:01.480Z,34.2
2022-08-17T12:23:02.458Z,34.9
2022-08-17T12:24:02.319Z,35.1
2022-08-17T12:25:02.335Z,35.3
2022-08-17T12:26:02.195Z,35.1
2022-08-17T12:27:02.189Z,34.4
2022-08-17T12:28:04.716Z,34.2
2022-08-17T12:29:01.693Z,34.2
2022-08-17T12:30:01.512Z,33.3
2022-08-17T12:31:01.694Z,32.6
2022-08-17T12:32:01.630Z,32.9
2022-08-17T12:33:02.104Z,33.2
2022-08-17T12:34:02.065Z,32.8
2022-08-17T12:35:02.082Z,32.9
2022-08-17T12:36:01.954Z,33
2022-08-17T12:37:01.830Z,33
2022-08-17T12:38:01.708Z,33.1
2022-08-17T12:39:12.245Z,33
2022-08-17T12:40:01.673Z,33.5
2022-08-17T12:41:01.849Z,33.7
2022-08-17T12:42:02.729Z,33.8
2022-08-17T12:43:01.794Z,34
2022-08-17T12:44:01.775Z,33.7
2022-08-17T12:45:02.272Z,33.5
2022-08-17T12:46:12.977Z,34
2022-08-17T12:47:01.413Z,34.4
2022-08-17T12:48:02.544Z,34.2
2022-08-17T12:49:01.406Z,34.5
2022-08-17T12:50:02.398Z,34.6
2022-08-17T12:51:02.242Z,34.9
2022-08-17T12:52:02.221Z,34.6
2022-08-17T12:53:02.628Z,34.7
2022-08-17T12:54:01.775Z,34.4
2022-08-17T12:55:01.684Z,34
2022-08-17T12:56:01.551Z,33.6
2022-08-17T12:57:01.542Z,33.5
2022-08-17T12:58:01.911Z,33.5
2022-08-17T12:59:02.403Z,33.3
2022-08-17T13:00:02.397Z,32.7
2022-08-17T13:01:01.503Z,32.8
2022-08-17T13:02:01.523Z,32.2
2022-08-17T13:03:01.591Z,32.2
2022-08-17T13:04:01.559Z,32.6
2022-08-17T13:05:01.391Z,32.7
2022-08-17T13:06:02.394Z,32.3
2022-08-17T13:07:02.264Z,32.3
2022-08-17T13:08:02.388Z,32.4
2022-08-17T13:09:02.279Z,32.9
2022-08-17T13:10:02.294Z,33.3
2022-08-17T13:11:02.165Z,33.6
2022-08-17T13:12:02.086Z,33.6
2022-08-17T13:13:01.918Z,33.5
2022-08-17T13:14:01.853Z,33.8
2022-08-17T13:15:01.867Z,33.9
2022-08-17T13:16:01.891Z,34.2
2022-08-17T13:17:01.840Z,33.7
2022-08-17T13:18:01.807Z,33.6
2022-08-17T13:19:01.656Z,33.5
2022-08-17T13:20:01.612Z,33.4
2022-08-17T13:21:01.453Z,34
2022-08-17T13:22:04.103Z,34.4
2022-08-17T13:23:01.728Z,34.3
2022-08-17T13:24:01.688Z,34.4
2022-08-17T13:25:01.557Z,34.3
2022-08-17T13:26:01.532Z,34.8
2022-08-17T13:27:01.418Z,34.8
2022-08-17T13:28:01.370Z,34.7
2022-08-17T13:29:02.359Z,34.7
2022-08-17T13:30:02.217Z,33.5
2022-08-17T13:31:01.448Z,33.2
2022-08-17T13:32:04.292Z,33.2
2022-08-17T13:33:02.418Z,33.4
2022-08-17T13:34:01.603Z,33
2022-08-17T13:35:13.403Z,33.3
2022-08-17T13:36:01.856Z,33.1
2022-08-17T13:37:02.246Z,33.1
2022-08-17T13:38:02.230Z,32.8
2022-08-17T13:39:02.239Z,32.6
2022-08-17T13:40:02.155Z,32.6
2022-08-17T13:41:01.523Z,32.6
2022-08-17T13:42:01.381Z,32.7
2022-08-17T13:43:02.390Z,32.3
2022-08-17T13:44:02.229Z,32.2
2022-08-17T13:45:01.675Z,32.6
2022-08-17T13:46:01.638Z,33.3
2022-08-17T13:47:01.599Z,33.8
2022-08-17T13:48:01.418Z,34
2022-08-17T13:49:02.430Z,34.1
2022-08-17T13:50:02.364Z,34.1
2022-08-17T13:51:02.431Z,34.1
2022-08-17T13:52:02.277Z,34.5
2022-08-17T13:53:02.443Z,34.4
2022-08-17T13:54:02.321Z,34.2
2022-08-17T13:55:02.345Z,34.4
2022-08-17T13:56:02.199Z,34.2
2022-08-17T13:57:02.201Z,34.4